Time;durP1;ratioP1;P1;durP2;ratioP2;P2;SDS_P1;SDS_P2;PMS_P1;PMS_P2;Temp;Humidity;BMP_temperature;BMP_pressure;BME280_temperature;BME280_humidity;BME280_pressure;Samples;Min_cycle;Max_cycle;Signal;HPM_P1;HPM_P2
2022/10/10 00:01:09;;;;;;;;;;;10.30;99.90;;;;;;7334830;19;110154;-72
2022/10/10 00:03:36;;;;;;;;;;;10.30;99.90;;;;;;7338192;19;109240;-73
2022/10/10 00:06:03;;;;;;;;;;;10.30;99.90;;;;;;7337322;19;109283;-73
2022/10/10 00:08:30;;;;;;;;;;;10.30;99.90;;;;;;7332556;19;110049;-73
2022/10/10 00:10:57;;;;;;;;;;;10.20;99.90;;;;;;7335798;19;108626;-76
2022/10/10 00:13:24;;;;;;;;;;;10.20;99.90;;;;;;7334268;19;110988;-79
2022/10/10 00:15:51;;;;;;;;;;;10.20;99.90;;;;;;7335618;19;109410;-73
2022/10/10 00:18:18;;;;;;;;;;;10.20;99.90;;;;;;7335462;19;108993;-75
2022/10/10 00:20:45;;;;;;;;;;;10.20;99.90;;;;;;7339457;19;109013;-74
2022/10/10 00:23:12;;;;;;;;;;;10.20;99.90;;;;;;7335381;19;109116;-72
2022/10/10 00:25:39;;;;;;;;;;;10.10;99.90;;;;;;7336664;19;109564;-72
2022/10/10 00:28:05;;;;;;;;;;;10.10;99.90;;;;;;7334062;19;110519;-74
2022/10/10 00:30:33;;;;;;;;;;;10.10;99.90;;;;;;7334230;19;108955;-72
2022/10/10 00:33:00;;;;;;;;;;;10.10;99.90;;;;;;7335782;19;109243;-74
2022/10/10 00:35:27;;;;;;;;;;;10.00;99.90;;;;;;7333600;19;109324;-73
2022/10/10 00:37:54;;;;;;;;;;;10.00;99.90;;;;;;7335241;19;108578;-72
2022/10/10 00:40:22;;;;;;;;;;;10.00;99.90;;;;;;7330374;19;109885;-72
2022/10/10 00:42:49;;;;;;;;;;;10.00;99.90;;;;;;7341647;19;110531;-72
2022/10/10 00:45:37;;;;;;;;;;;9.90;99.90;;;;;;7334553;19;109295;-72
2022/10/10 00:48:13;;;;;;;;;;;10.00;99.90;;;;;;7332457;19;110442;-72
2022/10/10 00:50:48;;;;;;;;;;;9.90;99.90;;;;;;7335133;19;109123;-72
2022/10/10 00:53:16;;;;;;;;;;;9.90;99.90;;;;;;7334725;19;109479;-72
2022/10/10 00:55:44;;;;;;;;;;;9.90;99.90;;;;;;7333486;19;110230;-72
2022/10/10 00:58:11;;;;;;;;;;;9.90;99.90;;;;;;7334527;19;108353;-72
2022/10/10 01:00:38;;;;;;;;;;;9.90;99.90;;;;;;7333824;19;109204;-72
2022/10/10 01:03:05;;;;;;;;;;;9.90;99.90;;;;;;7334701;19;110586;-72
2022/10/10 01:05:32;;;;;;;;;;;9.90;99.90;;;;;;7338691;19;109563;-72
2022/10/10 01:08:01;;;;;;;;;;;9.90;99.90;;;;;;7331941;19;109768;-72
2022/10/10 01:10:28;;;;;;;;;;;9.90;99.90;;;;;;7334161;19;108386;-72
2022/10/10 01:13:16;;;;;;;;;;;9.80;99.90;;;;;;7337256;19;109368;-72
2022/10/10 01:15:54;;;;;;;;;;;9.80;99.90;;;;;;7333084;19;110606;-72
2022/10/10 01:18:30;;;;;;;;;;;9.80;99.90;;;;;;7334022;19;108768;-72
2022/10/10 01:21:09;;;;;;;;;;;9.80;99.90;;;;;;7332574;19;110291;-72
2022/10/10 01:23:42;;;;;;;;;;;9.80;99.90;;;;;;7335177;19;110720;-72
2022/10/10 01:26:18;;;;;;;;;;;9.70;99.90;;;;;;7335658;19;110212;-72
2022/10/10 01:28:58;;;;;;;;;;;9.70;99.90;;;;;;7339809;19;112504;-72
2022/10/10 01:31:25;;;;;;;;;;;9.70;99.90;;;;;;7334150;19;108465;-72
2022/10/10 01:34:01;;;;;;;;;;;9.80;99.90;;;;;;7333167;19;109371;-72
2022/10/10 01:36:46;;;;;;;;;;;9.80;99.90;;;;;;7330298;19;110021;-72
2022/10/10 01:39:18;;;;;;;;;;;9.70;99.90;;;;;;7331170;19;108337;-72
2022/10/10 01:41:48;;;;;;;;;;;9.80;99.90;;;;;;7333038;19;109326;-72
2022/10/10 01:44:15;;;;;;;;;;;9.70;99.90;;;;;;7333369;19;109790;-72
2022/10/10 01:46:46;;;;;;;;;;;9.70;99.90;;;;;;7331799;19;109118;-72
2022/10/10 01:49:13;;;;;;;;;;;9.80;99.90;;;;;;7338334;19;110422;-72
2022/10/10 01:51:49;;;;;;;;;;;9.80;99.90;;;;;;7333231;19;109405;-72
2022/10/10 01:54:31;;;;;;;;;;;9.80;99.90;;;;;;7334065;19;111400;-72
2022/10/10 01:57:04;;;;;;;;;;;9.70;99.90;;;;;;7332709;19;110861;-72
2022/10/10 01:59:50;;;;;;;;;;;9.80;99.90;;;;;;7333553;19;109362;-72
2022/10/10 02:02:35;;;;;;;;;;;9.80;99.90;;;;;;7334893;19;108948;-72
2022/10/10 02:05:14;;;;;;;;;;;9.80;99.90;;;;;;7339206;19;109199;-72
2022/10/10 02:08:07;;;;;;;;;;;9.70;99.90;;;;;;7341316;19;109726;-72
2022/10/10 02:10:38;;;;;;;;;;;9.70;99.90;;;;;;7338797;19;109720;-74
2022/10/10 02:13:06;;;;;;;;;;;9.70;99.90;;;;;;7342668;19;109759;-72
2022/10/10 02:15:38;;;;;;;;;;;9.80;99.90;;;;;;7338044;19;109622;-72
2022/10/10 02:18:06;;;;;;;;;;;9.70;99.90;;;;;;7337516;19;112915;-72
2022/10/10 02:20:33;;;;;;;;;;;9.70;99.90;;;;;;7338633;19;109961;-73
2022/10/10 02:23:00;;;;;;;;;;;9.70;99.90;;;;;;7339100;19;109420;-72
2022/10/10 02:25:31;;;;;;;;;;;9.70;99.90;;;;;;7337827;19;110277;-72
2022/10/10 02:28:04;;;;;;;;;;;9.70;99.90;;;;;;7337597;19;109087;-72
2022/10/10 02:30:34;;;;;;;;;;;9.60;99.90;;;;;;7338752;19;110302;-72
2022/10/10 02:33:02;;;;;;;;;;;9.60;99.90;;;;;;7338391;19;110445;-72
2022/10/10 02:35:31;;;;;;;;;;;9.60;99.90;;;;;;7344312;19;110534;-73
2022/10/10 02:37:59;;;;;;;;;;;9.60;99.90;;;;;;7338137;19;110423;-71
2022/10/10 02:40:27;;;;;;;;;;;9.60;99.90;;;;;;7339127;19;108590;-72
2022/10/10 02:42:56;;;;;;;;;;;9.60;99.90;;;;;;7337307;19;109345;-72
2022/10/10 02:45:24;;;;;;;;;;;9.50;99.90;;;;;;7334876;19;110448;-72
2022/10/10 02:47:51;;;;;;;;;;;9.50;99.90;;;;;;7335932;19;109536;-72
2022/10/10 02:50:19;;;;;;;;;;;9.50;99.90;;;;;;7337028;19;109197;-72
2022/10/10 02:52:46;;;;;;;;;;;9.50;99.90;;;;;;7339988;19;111635;-72
2022/10/10 02:55:13;;;;;;;;;;;9.50;99.90;;;;;;7338712;19;109411;-72
2022/10/10 02:57:40;;;;;;;;;;;9.50;99.90;;;;;;7345113;19;109666;-71
2022/10/10 03:00:07;;;;;;;;;;;9.50;99.90;;;;;;7340177;19;109039;-72
2022/10/10 03:02:34;;;;;;;;;;;9.40;99.90;;;;;;7339990;19;109557;-73
2022/10/10 03:05:01;;;;;;;;;;;9.40;99.90;;;;;;7340642;19;110402;-73
2022/10/10 03:07:31;;;;;;;;;;;9.40;99.90;;;;;;7336395;19;109069;-73
2022/10/10 03:09:58;;;;;;;;;;;9.40;99.90;;;;;;7338955;19;110255;-73
2022/10/10 03:12:25;;;;;;;;;;;9.40;99.90;;;;;;7337138;19;110164;-74
2022/10/10 03:14:52;;;;;;;;;;;9.40;99.90;;;;;;7337295;19;108989;-74
2022/10/10 03:17:19;;;;;;;;;;;9.40;99.90;;;;;;7337592;19;110156;-74
2022/10/10 03:19:45;;;;;;;;;;;9.50;99.90;;;;;;7344825;19;110358;-72
2022/10/10 03:22:12;;;;;;;;;;;9.50;99.90;;;;;;7338618;19;110429;-72
2022/10/10 03:24:39;;;;;;;;;;;9.50;99.90;;;;;;7337456;19;110288;-72
2022/10/10 03:27:06;;;;;;;;;;;9.50;99.90;;;;;;7337907;19;109174;-74
2022/10/10 03:29:33;;;;;;;;;;;9.40;99.90;;;;;;7336456;19;109266;-72
2022/10/10 03:32:00;;;;;;;;;;;9.50;99.90;;;;;;7335816;19;111983;-76
2022/10/10 03:34:27;;;;;;;;;;;9.50;99.90;;;;;;7339155;19;109247;-79
2022/10/10 03:36:54;;;;;;;;;;;9.50;99.90;;;;;;7339829;19;110349;-77
2022/10/10 03:39:21;;;;;;;;;;;9.50;99.90;;;;;;7337384;19;112916;-78
2022/10/10 03:41:49;;;;;;;;;;;9.40;99.90;;;;;;7343960;19;109106;-76
2022/10/10 03:44:16;;;;;;;;;;;9.40;99.90;;;;;;7335909;19;111433;-73
2022/10/10 03:46:43;;;;;;;;;;;9.40;99.90;;;;;;7339576;19;109743;-76
2022/10/10 03:49:10;;;;;;;;;;;9.40;99.90;;;;;;7334865;19;109288;-73
2022/10/10 03:51:37;;;;;;;;;;;9.40;99.90;;;;;;7339001;19;110258;-74
2022/10/10 03:54:04;;;;;;;;;;;9.40;99.90;;;;;;7338989;19;109944;-74
2022/10/10 03:56:31;;;;;;;;;;;9.40;99.90;;;;;;7337168;19;109441;-72
2022/10/10 03:58:59;;;;;;;;;;;9.40;99.90;;;;;;7340258;19;110430;-71
2022/10/10 04:01:26;;;;;;;;;;;9.40;99.90;;;;;;7341427;19;108642;-71
2022/10/10 04:03:53;;;;;;;;;;;9.40;99.90;;;;;;7338023;19;109728;-72
2022/10/10 04:06:20;;;;;;;;;;;9.30;99.90;;;;;;7336477;19;108960;-71
2022/10/10 04:08:47;;;;;;;;;;;9.30;99.90;;;;;;7339701;19;109175;-73
2022/10/10 04:11:14;;;;;;;;;;;9.30;99.90;;;;;;7336265;19;110287;-73
2022/10/10 04:13:41;;;;;;;;;;;9.30;99.90;;;;;;7337717;19;109118;-73
2022/10/10 04:16:08;;;;;;;;;;;9.20;99.90;;;;;;7336425;19;112683;-73
2022/10/10 04:18:35;;;;;;;;;;;9.20;99.90;;;;;;7335651;19;110337;-72
2022/10/10 04:21:03;;;;;;;;;;;9.20;99.90;;;;;;7338927;19;110277;-71
2022/10/10 04:23:31;;;;;;;;;;;9.10;99.90;;;;;;7342987;19;109224;-71
2022/10/10 04:25:58;;;;;;;;;;;9.20;99.90;;;;;;7336992;19;108664;-71
2022/10/10 04:28:25;;;;;;;;;;;9.10;99.90;;;;;;7335125;19;111147;-71
2022/10/10 04:30:55;;;;;;;;;;;9.10;99.90;;;;;;7337207;19;108956;-71
2022/10/10 04:33:21;;;;;;;;;;;9.10;99.90;;;;;;7335737;19;109579;-71
2022/10/10 04:35:49;;;;;;;;;;;9.10;99.90;;;;;;7339178;19;109278;-73
2022/10/10 04:38:16;;;;;;;;;;;9.10;99.90;;;;;;7332306;19;110685;-71
2022/10/10 04:40:44;;;;;;;;;;;9.00;99.90;;;;;;7336505;19;108841;-71
2022/10/10 04:43:11;;;;;;;;;;;9.00;99.90;;;;;;7336965;19;109667;-74
2022/10/10 04:45:37;;;;;;;;;;;9.00;99.90;;;;;;7340934;19;110435;-73
2022/10/10 04:48:04;;;;;;;;;;;9.00;99.90;;;;;;7335318;19;110729;-73
2022/10/10 04:50:32;;;;;;;;;;;9.00;99.90;;;;;;7334489;19;109407;-73
2022/10/10 04:52:59;;;;;;;;;;;9.00;99.90;;;;;;7337534;19;110804;-73
2022/10/10 04:55:25;;;;;;;;;;;9.00;99.90;;;;;;7335224;19;109542;-73
2022/10/10 04:57:52;;;;;;;;;;;9.00;99.90;;;;;;7335396;19;113444;-73
2022/10/10 05:00:19;;;;;;;;;;;9.00;99.90;;;;;;7335154;19;109517;-74
2022/10/10 05:02:46;;;;;;;;;;;9.00;99.90;;;;;;7335388;19;112361;-75
2022/10/10 05:05:14;;;;;;;;;;;9.00;99.90;;;;;;7334549;19;110650;-74
2022/10/10 05:07:41;;;;;;;;;;;9.00;99.90;;;;;;7340621;19;108604;-73
2022/10/10 05:10:08;;;;;;;;;;;9.00;99.90;;;;;;7335734;19;109572;-74
2022/10/10 05:12:35;;;;;;;;;;;8.90;99.90;;;;;;7335735;19;108685;-73
2022/10/10 05:15:02;;;;;;;;;;;8.90;99.90;;;;;;7336813;19;111087;-73
2022/10/10 05:17:29;;;;;;;;;;;8.90;99.90;;;;;;7333385;19;109967;-73
2022/10/10 05:19:56;;;;;;;;;;;8.80;99.90;;;;;;7335006;19;108865;-73
2022/10/10 05:22:22;;;;;;;;;;;8.80;99.90;;;;;;7334289;19;108567;-72
2022/10/10 05:24:49;;;;;;;;;;;8.90;99.90;;;;;;7332871;19;110722;-74
2022/10/10 05:27:16;;;;;;;;;;;8.80;99.90;;;;;;7333225;19;108621;-72
2022/10/10 05:29:43;;;;;;;;;;;8.80;99.90;;;;;;7340620;19;112016;-75
2022/10/10 05:32:10;;;;;;;;;;;8.80;99.90;;;;;;7331724;19;108664;-73
2022/10/10 05:34:37;;;;;;;;;;;8.70;99.90;;;;;;7333406;19;109700;-73
2022/10/10 05:37:04;;;;;;;;;;;8.70;99.90;;;;;;7332170;19;110385;-73
2022/10/10 05:39:31;;;;;;;;;;;8.70;99.90;;;;;;7335661;19;108901;-73
2022/10/10 05:41:58;;;;;;;;;;;8.70;99.90;;;;;;7336131;19;109387;-73
2022/10/10 05:44:25;;;;;;;;;;;8.70;99.90;;;;;;7333841;19;110884;-75
2022/10/10 05:46:52;;;;;;;;;;;8.70;99.90;;;;;;7336917;19;109484;-72
2022/10/10 05:49:19;;;;;;;;;;;8.70;99.90;;;;;;7331722;19;110305;-73
2022/10/10 05:51:46;;;;;;;;;;;8.70;99.90;;;;;;7340988;19;109725;-74
2022/10/10 05:54:13;;;;;;;;;;;8.80;99.90;;;;;;7331459;19;109496;-73
2022/10/10 05:56:40;;;;;;;;;;;8.80;99.90;;;;;;7333974;19;110258;-76
2022/10/10 05:59:07;;;;;;;;;;;8.80;99.90;;;;;;7332434;19;109271;-73
2022/10/10 06:01:35;;;;;;;;;;;8.80;99.90;;;;;;7334956;19;109225;-73
2022/10/10 06:04:02;;;;;;;;;;;8.80;99.90;;;;;;7332069;19;110960;-73
2022/10/10 06:06:29;;;;;;;;;;;8.80;99.90;;;;;;7334335;19;110065;-77
2022/10/10 06:08:56;;;;;;;;;;;8.80;99.90;;;;;;7332205;19;111911;-80
2022/10/10 06:11:24;;;;;;;;;;;8.80;99.90;;;;;;7338658;19;110313;-80
2022/10/10 06:13:53;;;;;;;;;;;8.80;99.90;;;;;;7329510;19;112820;-78
2022/10/10 06:16:20;;;;;;;;;;;8.90;99.90;;;;;;7331915;19;110189;-76
2022/10/10 06:18:47;;;;;;;;;;;8.90;99.90;;;;;;7332783;19;108885;-73
2022/10/10 06:21:15;;;;;;;;;;;8.90;99.90;;;;;;7333298;19;110743;-73
2022/10/10 06:23:42;;;;;;;;;;;9.00;99.90;;;;;;7333623;19;109273;-73
2022/10/10 06:26:09;;;;;;;;;;;9.00;99.90;;;;;;7333747;19;109172;-73
2022/10/10 06:28:36;;;;;;;;;;;9.10;99.90;;;;;;7335202;19;109091;-73
2022/10/10 06:31:03;;;;;;;;;;;9.10;99.90;;;;;;7327556;19;110740;-73
2022/10/10 06:33:31;;;;;;;;;;;9.10;99.90;;;;;;7332990;19;109026;-73
2022/10/10 06:35:58;;;;;;;;;;;9.20;99.90;;;;;;7329016;19;110677;-73
2022/10/10 06:38:26;;;;;;;;;;;9.20;99.90;;;;;;7332036;19;108438;-73
2022/10/10 06:40:53;;;;;;;;;;;9.30;99.90;;;;;;7333387;19;109546;-73
2022/10/10 06:43:25;;;;;;;;;;;9.30;99.90;;;;;;7331692;19;109186;-74
2022/10/10 06:45:52;;;;;;;;;;;9.40;99.90;;;;;;7332800;19;108887;-73
2022/10/10 06:48:19;;;;;;;;;;;9.50;99.90;;;;;;7334395;19;110577;-73
2022/10/10 06:50:56;;;;;;;;;;;9.50;99.90;;;;;;7337907;19;110156;-73
2022/10/10 06:53:24;;;;;;;;;;;9.60;99.90;;;;;;7336179;19;112434;-73
2022/10/10 06:55:51;;;;;;;;;;;9.60;99.90;;;;;;7343323;19;109730;-73
2022/10/10 06:58:18;;;;;;;;;;;9.70;99.90;;;;;;7336152;19;109364;-73
2022/10/10 07:00:51;;;;;;;;;;;9.80;99.90;;;;;;7337799;19;109066;-73
2022/10/10 07:03:18;;;;;;;;;;;9.90;99.90;;;;;;7333499;19;110430;-73
2022/10/10 07:05:49;;;;;;;;;;;10.00;99.90;;;;;;7337877;19;109731;-73
2022/10/10 07:08:16;;;;;;;;;;;10.10;99.90;;;;;;7338115;19;109359;-74
2022/10/10 07:10:43;;;;;;;;;;;10.30;99.90;;;;;;7335264;19;109240;-74
2022/10/10 07:13:10;;;;;;;;;;;10.40;99.90;;;;;;7333597;19;112131;-73
2022/10/10 07:15:37;;;;;;;;;;;10.60;99.90;;;;;;7334558;19;109140;-73
2022/10/10 07:18:04;;;;;;;;;;;10.70;99.90;;;;;;7337183;19;109509;-74
2022/10/10 07:20:31;;;;;;;;;;;10.90;99.90;;;;;;7333309;19;109372;-73
2022/10/10 07:22:58;;;;;;;;;;;11.00;99.90;;;;;;7332877;19;108974;-73
2022/10/10 07:25:25;;;;;;;;;;;11.10;99.90;;;;;;7333074;19;109110;-73
2022/10/10 07:27:52;;;;;;;;;;;11.20;99.90;;;;;;7338203;19;109463;-71
2022/10/10 07:30:19;;;;;;;;;;;11.40;99.90;;;;;;7334482;19;110893;-73
2022/10/10 07:32:46;;;;;;;;;;;11.40;99.90;;;;;;7338634;19;109864;-74
2022/10/10 07:35:13;;;;;;;;;;;11.60;99.90;;;;;;7336765;19;110168;-74
2022/10/10 07:37:40;;;;;;;;;;;11.70;99.90;;;;;;7338794;19;110616;-74
2022/10/10 07:40:08;;;;;;;;;;;11.80;99.90;;;;;;7341942;19;109646;-74
2022/10/10 07:42:35;;;;;;;;;;;11.90;99.90;;;;;;7336474;19;110925;-71
2022/10/10 07:45:02;;;;;;;;;;;12.00;99.90;;;;;;7336302;19;109056;-74
2022/10/10 07:47:29;;;;;;;;;;;12.10;99.90;;;;;;7337136;19;108290;-71
2022/10/10 07:49:55;;;;;;;;;;;12.20;99.90;;;;;;7337427;19;110258;-74
2022/10/10 07:52:22;;;;;;;;;;;12.20;99.90;;;;;;7334771;19;109800;-74
2022/10/10 07:54:49;;;;;;;;;;;12.30;99.90;;;;;;7334243;19;110236;-74
2022/10/10 07:57:16;;;;;;;;;;;12.40;99.90;;;;;;7334210;19;111506;-66
2022/10/10 07:59:44;;;;;;;;;;;12.50;99.90;;;;;;7332821;19;109168;-68
2022/10/10 08:02:11;;;;;;;;;;;12.50;99.90;;;;;;7342486;19;109465;-66
2022/10/10 08:04:39;;;;;;;;;;;12.60;99.90;;;;;;7337493;19;110048;-66
2022/10/10 08:07:06;;;;;;;;;;;12.60;99.90;;;;;;7339882;19;108452;-68
2022/10/10 08:09:33;;;;;;;;;;;12.70;99.90;;;;;;7336867;19;110517;-68
2022/10/10 08:11:59;;;;;;;;;;;12.80;99.90;;;;;;7339594;19;109238;-66
2022/10/10 08:14:26;;;;;;;;;;;12.90;99.90;;;;;;7335135;19;109052;-69
2022/10/10 08:16:53;;;;;;;;;;;13.00;99.90;;;;;;7337170;19;110060;-66
2022/10/10 08:19:20;;;;;;;;;;;13.10;99.90;;;;;;7336803;19;109195;-68
2022/10/10 08:21:47;;;;;;;;;;;13.20;99.90;;;;;;7343727;19;109028;-68
2022/10/10 08:24:14;;;;;;;;;;;13.30;99.90;;;;;;7336676;19;108971;-69
2022/10/10 08:26:41;;;;;;;;;;;13.50;99.90;;;;;;7338483;19;110020;-69
2022/10/10 08:29:07;;;;;;;;;;;13.60;99.90;;;;;;7335535;19;108855;-68
2022/10/10 08:31:34;;;;;;;;;;;13.70;99.90;;;;;;7336479;19;108978;-66
2022/10/10 08:34:01;;;;;;;;;;;13.90;99.90;;;;;;7335901;19;108292;-67
2022/10/10 08:36:28;;;;;;;;;;;14.10;99.90;;;;;;7335652;19;111268;-68
2022/10/10 08:38:59;;;;;;;;;;;14.20;99.90;;;;;;7337079;19;108610;-68
2022/10/10 08:41:29;;;;;;;;;;;14.40;99.90;;;;;;7334151;19;109102;-69
2022/10/10 08:44:00;;;;;;;;;;;14.50;99.90;;;;;;7341246;19;109293;-66
2022/10/10 08:46:46;;;;;;;;;;;14.60;99.90;;;;;;7335276;19;109132;-66
2022/10/10 08:49:13;;;;;;;;;;;14.70;99.90;;;;;;7333722;19;109219;-66
2022/10/10 08:51:41;;;;;;;;;;;14.80;99.90;;;;;;7334956;19;108620;-66
2022/10/10 08:54:10;;;;;;;;;;;14.90;99.90;;;;;;7336638;19;109478;-66
2022/10/10 08:56:37;;;;;;;;;;;15.00;99.90;;;;;;7335157;19;109434;-66
2022/10/10 08:59:09;;;;;;;;;;;15.10;99.90;;;;;;7336947;19;109646;-69
2022/10/10 09:01:37;;;;;;;;;;;15.30;99.90;;;;;;7337812;19;109441;-66
2022/10/10 09:04:24;;;;;;;;;;;15.50;99.90;;;;;;7332504;19;112244;-66
2022/10/10 09:06:54;;;;;;;;;;;15.70;99.90;;;;;;7338791;19;109048;-66
2022/10/10 09:09:35;;;;;;;;;;;15.90;99.90;;;;;;7334532;19;110368;-66
2022/10/10 09:12:05;;;;;;;;;;;16.10;99.90;;;;;;7336956;19;108865;-66
2022/10/10 09:14:34;;;;;;;;;;;16.10;99.90;;;;;;7336946;19;108941;-66
2022/10/10 09:17:20;;;;;;;;;;;16.20;99.90;;;;;;7336185;19;110222;-66
2022/10/10 09:19:52;;;;;;;;;;;16.30;99.90;;;;;;7338201;19;108715;-66
2022/10/10 09:22:22;;;;;;;;;;;16.40;99.90;;;;;;7330620;19;111036;-66
2022/10/10 09:24:52;;;;;;;;;;;16.40;99.90;;;;;;7335469;19;109316;-66
2022/10/10 09:27:23;;;;;;;;;;;16.50;99.90;;;;;;7334372;19;108769;-66
2022/10/10 09:29:52;;;;;;;;;;;16.50;99.90;;;;;;7341402;19;109196;-66
2022/10/10 09:32:22;;;;;;;;;;;16.50;99.90;;;;;;7335014;19;109332;-66
2022/10/10 09:35:01;;;;;;;;;;;16.50;99.90;;;;;;7334481;19;108923;-66
2022/10/10 09:37:38;;;;;;;;;;;16.50;99.90;;;;;;7334790;19;110127;-66
2022/10/10 09:40:18;;;;;;;;;;;16.50;99.90;;;;;;7334231;19;111513;-66
2022/10/10 09:42:45;;;;;;;;;;;16.50;99.90;;;;;;7333896;19;110048;-66
2022/10/10 09:45:17;;;;;;;;;;;16.60;99.90;;;;;;7332890;19;110077;-66
2022/10/10 09:47:45;;;;;;;;;;;16.60;99.90;;;;;;7334857;19;108877;-66
2022/10/10 09:50:13;;;;;;;;;;;16.70;99.90;;;;;;7333619;19;110614;-66
2022/10/10 09:52:41;;;;;;;;;;;16.80;99.90;;;;;;7338034;19;110178;-66
2022/10/10 09:55:18;;;;;;;;;;;16.70;99.90;;;;;;7333504;19;108571;-66
2022/10/10 09:57:46;;;;;;;;;;;16.70;99.90;;;;;;7334079;19;110008;-66
2022/10/10 10:00:19;;;;;;;;;;;16.80;99.90;;;;;;7332756;19;108960;-66
2022/10/10 10:02:47;;;;;;;;;;;16.80;99.90;;;;;;7334350;19;109349;-66
2022/10/10 10:05:32;;;;;;;;;;;16.80;99.90;;;;;;7333598;19;109334;-66
2022/10/10 10:07:59;;;;;;;;;;;16.90;99.90;;;;;;7333986;19;109575;-66
2022/10/10 10:10:26;;;;;;;;;;;17.10;99.90;;;;;;7334323;19;108397;-66
2022/10/10 10:12:54;;;;;;;;;;;17.30;99.90;;;;;;7335586;19;110841;-66
2022/10/10 10:15:21;;;;;;;;;;;17.50;99.90;;;;;;7336547;19;108861;-66
2022/10/10 10:18:06;;;;;;;;;;;17.70;99.90;;;;;;7334646;19;109688;-66
2022/10/10 10:20:35;;;;;;;;;;;17.80;99.90;;;;;;7332291;19;109022;-66
2022/10/10 10:23:02;;;;;;;;;;;18.10;99.90;;;;;;7336603;19;108278;-66
2022/10/10 10:25:35;;;;;;;;;;;18.30;99.90;;;;;;7337266;19;110422;-66
2022/10/10 10:28:11;;;;;;;;;;;18.40;99.90;;;;;;7339256;19;108679;-66
2022/10/10 10:30:39;;;;;;;;;;;18.50;99.90;;;;;;7340180;19;112697;-66
2022/10/10 10:33:11;;;;;;;;;;;18.60;99.90;;;;;;7343694;19;110257;-66
2022/10/10 10:35:47;;;;;;;;;;;18.60;99.90;;;;;;7346293;19;109138;-66
2022/10/10 10:38:29;;;;;;;;;;;18.60;99.90;;;;;;7338534;19;109234;-66
2022/10/10 10:41:03;;;;;;;;;;;18.70;99.90;;;;;;7339938;19;109072;-66
2022/10/10 10:43:33;;;;;;;;;;;18.70;99.90;;;;;;7342437;19;109233;-66
2022/10/10 10:46:07;;;;;;;;;;;18.70;99.90;;;;;;7340472;19;110295;-66
2022/10/10 10:48:42;;;;;;;;;;;18.70;99.90;;;;;;7338758;19;109617;-66
2022/10/10 10:51:09;;;;;;;;;;;18.90;99.90;;;;;;7341510;19;110610;-66
2022/10/10 10:53:53;;;;;;;;;;;18.90;99.90;;;;;;7339896;19;109127;-66
2022/10/10 10:56:32;;;;;;;;;;;19.00;99.90;;;;;;7339534;19;109069;-66
2022/10/10 10:59:21;;;;;;;;;;;19.00;99.90;;;;;;7344079;19;110357;-66
2022/10/10 11:02:08;;;;;;;;;;;19.10;99.90;;;;;;7341133;19;109507;-66
2022/10/10 11:04:42;;;;;;;;;;;19.10;99.90;;;;;;7338681;19;109367;-66
2022/10/10 11:07:33;;;;;;;;;;;19.10;99.90;;;;;;7338640;19;111828;-67
2022/10/10 11:10:15;;;;;;;;;;;19.10;99.90;;;;;;7340120;19;108453;-66
2022/10/10 11:12:42;;;;;;;;;;;19.10;99.90;;;;;;7339920;19;109133;-66
2022/10/10 11:15:09;;;;;;;;;;;19.10;99.90;;;;;;7338321;19;110074;-66
2022/10/10 11:17:59;;;;;;;;;;;19.20;99.90;;;;;;7340920;19;109058;-66
2022/10/10 11:20:38;;;;;;;;;;;19.30;99.90;;;;;;7336473;19;109201;-66
2022/10/10 11:23:43;;;;;;;;;;;19.40;99.90;;;;;;7345117;19;109199;-66
2022/10/10 11:26:22;;;;;;;;;;;19.50;99.90;;;;;;7331499;19;109936;-66
2022/10/10 11:28:52;;;;;;;;;;;19.50;99.90;;;;;;7334868;19;109227;-66
2022/10/10 11:31:25;;;;;;;;;;;19.50;99.90;;;;;;7334597;19;108973;-66
2022/10/10 11:33:55;;;;;;;;;;;19.50;99.90;;;;;;7330787;19;109354;-66
2022/10/10 11:36:24;;;;;;;;;;;19.50;99.90;;;;;;7333518;19;110168;-66
2022/10/10 11:38:58;;;;;;;;;;;19.50;99.90;;;;;;7335060;19;110464;-66
2022/10/10 11:41:25;;;;;;;;;;;19.50;99.90;;;;;;7331345;19;110317;-65
2022/10/10 11:43:55;;;;;;;;;;;19.40;99.90;;;;;;7333836;19;110124;-66
2022/10/10 11:46:22;;;;;;;;;;;19.50;99.90;;;;;;7338855;19;108641;-67
2022/10/10 11:48:53;;;;;;;;;;;19.50;99.90;;;;;;7332250;19;110275;-66
2022/10/10 11:51:28;;;;;;;;;;;19.60;99.90;;;;;;7332336;19;110215;-66
2022/10/10 11:53:59;;;;;;;;;;;19.60;99.90;;;;;;7333460;19;109211;-66
2022/10/10 11:56:42;;;;;;;;;;;19.60;99.90;;;;;;7333056;19;109217;-66
2022/10/10 11:59:16;;;;;;;;;;;19.80;99.90;;;;;;7338140;19;108887;-66
2022/10/10 12:01:47;;;;;;;;;;;19.90;99.90;;;;;;7337148;19;108280;-66
2022/10/10 12:04:14;;;;;;;;;;;20.00;99.90;;;;;;7336242;19;110907;-66
2022/10/10 12:06:42;;;;;;;;;;;20.20;99.90;;;;;;7338109;19;108554;-66
2022/10/10 12:09:13;;;;;;;;;;;20.30;99.90;;;;;;7341345;19;108792;-67
2022/10/10 12:11:44;;;;;;;;;;;20.30;99.90;;;;;;7337154;19;109309;-66
2022/10/10 12:14:15;;;;;;;;;;;20.40;99.90;;;;;;7337629;19;108820;-66
2022/10/10 12:16:43;;;;;;;;;;;20.60;99.90;;;;;;7338259;19;110708;-66
2022/10/10 12:19:18;;;;;;;;;;;20.80;99.90;;;;;;7334670;19;109024;-67
2022/10/10 12:21:53;;;;;;;;;;;21.00;99.90;;;;;;7336994;19;109340;-66
2022/10/10 12:24:20;;;;;;;;;;;21.30;99.90;;;;;;7336758;19;112468;-66
2022/10/10 12:26:53;;;;;;;;;;;21.30;99.90;;;;;;7337689;19;109926;-67
2022/10/10 12:29:38;;;;;;;;;;;21.30;99.90;;;;;;7342336;19;108972;-67
2022/10/10 12:32:22;;;;;;;;;;;21.40;99.90;;;;;;7336189;19;109544;-66
2022/10/10 12:34:48;;;;;;;;;;;21.40;99.90;;;;;;7337708;19;112938;-67
2022/10/10 12:37:21;;;;;;;;;;;21.30;99.90;;;;;;7334666;19;110599;-66
2022/10/10 12:40:00;;;;;;;;;;;21.30;99.90;;;;;;7335678;19;109418;-66
2022/10/10 12:42:32;;;;;;;;;;;21.20;99.90;;;;;;7336804;19;108802;-66
2022/10/10 12:44:59;;;;;;;;;;;21.20;99.90;;;;;;7333021;19;110508;-66
2022/10/10 12:47:40;;;;;;;;;;;21.20;99.90;;;;;;7335572;19;108285;-66
2022/10/10 12:50:34;;;;;;;;;;;21.00;99.90;;;;;;7335592;19;111097;-66
2022/10/10 12:53:03;;;;;;;;;;;21.00;99.90;;;;;;7338780;19;110233;-67
2022/10/10 12:55:31;;;;;;;;;;;20.90;99.90;;;;;;7336724;19;109133;-66
2022/10/10 12:58:00;;;;;;;;;;;20.80;99.90;;;;;;7335187;19;110356;-66
2022/10/10 13:00:35;;;;;;;;;;;20.70;99.90;;;;;;7333929;19;108483;-66
2022/10/10 13:03:03;;;;;;;;;;;20.70;99.90;;;;;;7335946;19;109381;-66
2022/10/10 13:05:33;;;;;;;;;;;20.60;99.90;;;;;;7334600;19;109156;-66
2022/10/10 13:08:02;;;;;;;;;;;20.50;99.90;;;;;;7335373;19;109005;-66
2022/10/10 13:10:29;;;;;;;;;;;20.40;99.90;;;;;;7335309;19;108304;-66
2022/10/10 13:12:57;;;;;;;;;;;20.40;99.90;;;;;;7334424;19;109335;-66
2022/10/10 13:15:24;;;;;;;;;;;20.30;99.90;;;;;;7340570;19;110510;-67
2022/10/10 13:17:50;;;;;;;;;;;20.30;99.90;;;;;;7338422;19;110101;-66
2022/10/10 13:20:37;;;;;;;;;;;20.20;99.90;;;;;;7335757;19;109561;-66
2022/10/10 13:23:06;;;;;;;;;;;20.20;99.90;;;;;;7336996;19;108911;-66
2022/10/10 13:25:34;;;;;;;;;;;20.20;99.90;;;;;;7333611;19;110196;-66
2022/10/10 13:28:02;;;;;;;;;;;20.20;99.90;;;;;;7333688;19;108878;-66
2022/10/10 13:30:29;;;;;;;;;;;20.20;99.90;;;;;;7334045;19;110438;-67
2022/10/10 13:32:56;;;;;;;;;;;20.20;99.90;;;;;;7335705;19;109982;-66
2022/10/10 13:35:24;;;;;;;;;;;20.10;99.90;;;;;;7335525;19;109143;-66
2022/10/10 13:37:53;;;;;;;;;;;20.10;99.90;;;;;;7340633;19;109049;-67
2022/10/10 13:40:20;;;;;;;;;;;20.00;99.90;;;;;;7333564;19;109608;-66
2022/10/10 13:42:48;;;;;;;;;;;19.90;99.90;;;;;;7335199;19;109066;-66
2022/10/10 13:45:23;;;;;;;;;;;19.80;99.90;;;;;;7334207;19;109206;-66
2022/10/10 13:47:56;;;;;;;;;;;19.80;99.90;;;;;;7334090;19;109080;-66
2022/10/10 13:50:25;;;;;;;;;;;19.60;99.90;;;;;;7334025;19;108367;-66
2022/10/10 13:53:13;;;;;;;;;;;19.60;99.90;;;;;;7333938;19;109208;-66
2022/10/10 13:55:40;;;;;;;;;;;19.50;99.90;;;;;;7332899;19;108877;-66
2022/10/10 13:58:08;;;;;;;;;;;19.40;99.90;;;;;;7328227;19;108206;-66
2022/10/10 14:00:36;;;;;;;;;;;19.40;99.90;;;;;;7339936;19;109503;-67
2022/10/10 14:03:15;;;;;;;;;;;19.40;99.90;;;;;;7333764;19;108557;-66
2022/10/10 14:05:43;;;;;;;;;;;19.50;99.90;;;;;;7336222;19;110117;-66
2022/10/10 14:08:14;;;;;;;;;;;19.50;99.90;;;;;;7332914;19;108876;-67
2022/10/10 14:10:41;;;;;;;;;;;19.50;99.90;;;;;;7333714;19;109249;-66
2022/10/10 14:13:16;;;;;;;;;;;19.60;99.90;;;;;;7332688;19;109630;-66
2022/10/10 14:15:46;;;;;;;;;;;19.50;99.90;;;;;;7333168;19;108874;-66
2022/10/10 14:18:15;;;;;;;;;;;19.50;99.90;;;;;;7333877;19;109297;-66
2022/10/10 14:20:43;;;;;;;;;;;19.40;99.90;;;;;;7332855;19;110166;-66
2022/10/10 14:23:10;;;;;;;;;;;19.30;99.90;;;;;;7339008;19;108499;-65
2022/10/10 14:25:41;;;;;;;;;;;19.20;99.90;;;;;;7335081;19;110187;-66